createdAt,value
2023-03-18T00:00:18.370Z,24.8
2023-03-18T00:06:10.935Z,24.4
2023-03-18T00:11:49.480Z,23.9
2023-03-18T00:16:39.629Z,23.8
2023-03-18T00:22:01.009Z,23.4
2023-03-18T00:27:53.656Z,23.3
2023-03-18T00:33:30.655Z,27.3
2023-03-18T00:39:23.802Z,29.8
2023-03-18T00:45:17.964Z,27.4
2023-03-18T00:50:39.496Z,26.3
2023-03-18T00:56:17.254Z,25.3
2023-03-18T01:02:11.222Z,24.7
2023-03-18T01:07:48.603Z,24.3
2023-03-18T01:13:29.131Z,23.8
2023-03-18T01:19:22.562Z,23.6
2023-03-18T01:24:44.329Z,26.8
2023-03-18T01:30:21.114Z,29.3
2023-03-18T01:36:14.181Z,28.3
2023-03-18T01:42:06.020Z,26.9
2023-03-18T01:47:43.443Z,25.4
2023-03-18T01:53:05.416Z,25
2023-03-18T01:58:57.951Z,24.2
2023-03-18T02:04:50.540Z,24
2023-03-18T02:10:44.601Z,23.4
2023-03-18T02:16:21.999Z,23.7
2023-03-18T02:21:43.248Z,28.1
2023-03-18T02:27:21.702Z,29.9
2023-03-18T02:33:14.277Z,27.6
2023-03-18T02:39:07.658Z,26.8
2023-03-18T02:45:01.006Z,25.1
2023-03-18T02:50:52.479Z,24.5
2023-03-18T02:56:45.128Z,24
2023-03-18T03:01:51.969Z,23.6
2023-03-18T03:07:30.232Z,23.3
2023-03-18T03:13:06.880Z,26.1
2023-03-18T03:18:44.181Z,28.6
2023-03-18T03:24:37.474Z,30
2023-03-18T03:30:29.756Z,27.4
2023-03-18T03:35:51.692Z,26.1
2023-03-18T03:41:44.477Z,25.1
2023-03-18T03:47:37.772Z,24.4
2023-03-18T03:53:15.610Z,23.9
2023-03-18T03:58:52.730Z,23.4
2023-03-18T04:04:29.859Z,23.3
2023-03-18T04:09:52.066Z,26.9
2023-03-18T04:15:44.863Z,25
2023-03-18T04:21:07.506Z,25.4
2023-03-18T04:26:44.380Z,28.6
2023-03-18T04:32:36.907Z,30.3
2023-03-18T04:38:29.622Z,27.4
2023-03-18T04:44:22.908Z,25.9
2023-03-18T04:50:16.154Z,24.9
2023-03-18T04:55:53.723Z,24.1
2023-03-18T05:01:34.991Z,23.8
2023-03-18T05:07:28.018Z,23.3
2023-03-18T05:13:19.937Z,23.1
2023-03-18T05:24:34.193Z,29.4
2023-03-18T05:30:26.761Z,28.9
2023-03-18T05:36:21.238Z,27
2023-03-18T05:42:13.678Z,25.4
2023-03-18T05:48:14.567Z,24.8
2023-03-18T05:54:07.790Z,23.9
2023-03-18T05:59:46.508Z,23.6
2023-03-18T06:05:09.294Z,23.1
2023-03-18T06:11:04.309Z,25.1
2023-03-18T06:16:57.374Z,28.2
2023-03-18T06:22:35.664Z,29.5
2023-03-18T06:28:28.251Z,29.1
2023-03-18T06:34:22.473Z,27.1
2023-03-18T06:40:14.647Z,25.4
2023-03-18T06:46:08.126Z,24.8
2023-03-18T06:52:02.991Z,23.9
2023-03-18T06:57:54.614Z,23.7
2023-03-18T07:03:32.199Z,23.1
2023-03-18T07:09:25.569Z,25.4
2023-03-18T07:15:16.808Z,27.9
2023-03-18T07:21:13.721Z,26.4
2023-03-18T07:32:33.394Z,27.6
2023-03-18T07:38:27.106Z,30.1
2023-03-18T07:44:22.130Z,27.7
2023-03-18T07:50:14.904Z,26.3
2023-03-18T07:56:08.030Z,24.6
2023-03-18T08:02:05.943Z,24
2023-03-18T08:07:44.043Z,23.6
2023-03-18T08:13:57.315Z,26
2023-03-18T08:19:50.794Z,29.6
2023-03-18T08:25:43.174Z,29.3
2023-03-18T08:31:37.147Z,27.1
2023-03-18T08:37:33.205Z,26.6
2023-03-18T08:43:09.607Z,26.3
2023-03-18T08:49:02.821Z,25.9
2023-03-18T08:54:39.695Z,29.2
2023-03-18T09:00:16.702Z,30.5
2023-03-18T09:05:39.325Z,27.3
2023-03-18T09:11:39.243Z,26.6
2023-03-18T09:17:49.019Z,26.4
2023-03-18T09:23:51.004Z,28.7
2023-03-18T09:29:43.674Z,31.3
2023-03-18T09:35:36.279Z,27.3
2023-03-18T09:41:30.385Z,26.5
2023-03-18T09:47:23.799Z,26.3
2023-03-18T09:53:16.061Z,30.1
2023-03-18T09:58:53.433Z,28.6
2023-03-18T10:04:46.475Z,26.8
2023-03-18T10:10:22.754Z,26.4
2023-03-18T10:21:54.686Z,31.3
2023-03-18T10:27:57.844Z,27.4
2023-03-18T10:34:09.041Z,26.4
2023-03-18T10:39:47.384Z,26.2
2023-03-18T10:45:39.204Z,29.7
2023-03-18T10:51:33.149Z,28.9
2023-03-18T10:57:25.582Z,26.6
2023-03-18T11:03:18.119Z,26.1
2023-03-18T11:09:11.240Z,25.7
2023-03-18T11:15:04.498Z,30.4
2023-03-18T11:20:57.432Z,27.4
2023-03-18T11:26:50.552Z,26.1
2023-03-18T11:32:53.328Z,25.8
2023-03-18T11:38:47.676Z,28.2
2023-03-18T11:44:45.286Z,30.2
2023-03-18T11:50:22.877Z,26.9
2023-03-18T11:55:44.767Z,26.3
2023-03-18T12:01:07.648Z,26.1
2023-03-18T12:06:29.693Z,29.8
2023-03-18T12:12:24.968Z,29.1
2023-03-18T12:18:19.487Z,26.7
2023-03-18T12:23:57.819Z,26.3
2023-03-18T12:29:19.324Z,25.6
2023-03-18T12:34:56.714Z,30.5
2023-03-18T12:40:52.961Z,27.9
2023-03-18T12:46:45.512Z,26.5
2023-03-18T12:52:35.073Z,26.1
2023-03-18T12:58:28.297Z,26.8
2023-03-18T13:04:11.366Z,31.3
2023-03-18T13:09:49.417Z,27.2
2023-03-18T13:15:45.444Z,26.4
2023-03-18T13:21:23.593Z,26.1
2023-03-18T13:27:17.337Z,28.5
2023-03-18T13:33:11.130Z,29.8
2023-03-18T13:39:05.790Z,26.8
2023-03-18T13:44:59.036Z,26.2
2023-03-18T13:50:37.539Z,25.9
2023-03-18T13:56:29.671Z,29.1
2023-03-18T14:02:23.932Z,28.9
2023-03-18T14:08:17.964Z,26.6
2023-03-18T14:14:26.669Z,26.1
2023-03-18T14:20:07.874Z,25.9
2023-03-18T14:25:31.879Z,25.7
2023-03-18T14:30:53.749Z,25.4
2023-03-18T14:36:31.246Z,25.2
2023-03-18T14:42:27.140Z,24.9
2023-03-18T14:48:12.487Z,24.6
2023-03-18T14:53:50.045Z,24.4
2023-03-18T14:59:42.238Z,24.1
2023-03-18T15:05:34.945Z,23.9
2023-03-18T15:11:25.830Z,23.8
2023-03-18T15:17:02.791Z,23.6
2023-03-18T15:22:55.668Z,23.4
2023-03-18T15:28:33.401Z,23.2
2023-03-18T15:34:26.545Z,23.1
2023-03-18T15:40:19.394Z,22.9
2023-03-18T15:45:56.719Z,22.8
2023-03-18T15:51:50.051Z,22.7
2023-03-18T15:57:28.141Z,22.6
2023-03-18T16:03:20.410Z,22.4
2023-03-18T16:09:13.206Z,22.3
2023-03-18T16:15:06.233Z,22.3
2023-03-18T16:20:43.924Z,22.1
2023-03-18T16:26:37.637Z,22
2023-03-18T16:32:29.590Z,21.9
2023-03-18T16:38:07.466Z,21.9
2023-03-18T16:43:45.023Z,21.8
2023-03-18T16:49:22.719Z,21.7
2023-03-18T16:55:14.847Z,28.9
2023-03-18T17:00:52.140Z,34.1
2023-03-18T17:06:30.359Z,38.3
2023-03-18T17:12:23.406Z,40.6
2023-03-18T17:18:02.968Z,42
2023-03-18T17:23:54.977Z,38.9
2023-03-18T17:29:32.303Z,37.7
2023-03-18T17:35:28.275Z,38.1
2023-03-18T17:41:05.714Z,37
2023-03-18T17:46:43.533Z,36.6
2023-03-18T17:52:36.148Z,36.7
2023-03-18T17:58:12.946Z,36.6
2023-03-18T18:04:06.644Z,41.4
2023-03-18T18:09:28.656Z,40.3
2023-03-18T18:15:05.499Z,39
2023-03-18T18:21:01.267Z,40.1
2023-03-18T18:26:39.840Z,37.6
2023-03-18T18:32:20.852Z,39.8
2023-03-18T18:37:43.465Z,37.5
2023-03-18T18:43:36.445Z,39.6
2023-03-18T18:49:13.455Z,37.7
2023-03-18T18:54:51.681Z,41.9
2023-03-18T19:00:45.545Z,39.5
2023-03-18T19:06:23.849Z,41.2
2023-03-18T19:12:16.826Z,42.6
2023-03-18T19:17:55.559Z,42.6
2023-03-18T19:23:47.645Z,40.2
2023-03-18T19:29:32.791Z,38.8
2023-03-18T19:35:25.717Z,40.2
2023-03-18T19:41:03.497Z,37.8
2023-03-18T19:46:58.210Z,37.3
2023-03-18T19:52:37.702Z,37.4
2023-03-18T19:58:30.201Z,37.3
2023-03-18T20:04:26.917Z,37
2023-03-18T20:10:20.493Z,38.4
2023-03-18T20:16:12.883Z,36.9
2023-03-18T20:22:06.362Z,36.8
2023-03-18T20:27:43.038Z,36.5
2023-03-18T20:33:05.808Z,35.9
2023-03-18T20:38:28.229Z,35.5
2023-03-18T20:43:34.954Z,34.8
2023-03-18T20:49:12.622Z,33.6
2023-03-18T20:55:05.322Z,32.4
2023-03-18T21:00:42.673Z,31.4
2023-03-18T21:06:36.178Z,30.6
2023-03-18T21:12:14.155Z,29.9
2023-03-18T21:18:07.644Z,28.2
2023-03-18T21:24:13.161Z,26.8
2023-03-18T21:30:21.105Z,26.1
2023-03-18T21:36:02.314Z,25.6
2023-03-18T21:41:54.936Z,25.1
2023-03-18T21:47:33.220Z,24.9
2023-03-18T21:53:39.992Z,24.4
2023-03-18T21:59:32.406Z,24.2
2023-03-18T22:05:25.873Z,23.8
2023-03-18T22:11:02.690Z,23.7
2023-03-18T22:16:24.119Z,23.5
2023-03-18T22:22:17.835Z,23.3
2023-03-18T22:27:24.266Z,23.3
2023-03-18T22:33:02.063Z,23.1
2023-03-18T22:38:56.144Z,23.1
2023-03-18T22:44:47.998Z,26.1
2023-03-18T22:50:27.730Z,30
2023-03-18T22:56:04.905Z,27.3
2023-03-18T23:01:59.943Z,26.1
2023-03-18T23:07:22.896Z,25.4
2023-03-18T23:13:29.667Z,24.8
2023-03-18T23:19:23.157Z,24.4
2023-03-18T23:25:16.206Z,23.9
2023-03-18T23:31:13.289Z,23.7
2023-03-18T23:36:20.699Z,23.3
2023-03-18T23:42:13.576Z,23.2
2023-03-18T23:48:08.713Z,28.3
2023-03-18T23:54:01.815Z,29.2
